Terminal Aerodrome Forecast
Issued by NWS Cleveland, OH

Home | Current Version | Previous Version | Graphics & Text | Print | Product List | Glossary Off
Versions: 1 2 3 4 5 6 7 8 9 10 11 12 13

000
FTUS41 KCLE 302339
TAFERI
TAF
KERI 302339Z 3100/3124 19005KT P6SM SCT200
      TEMPO 3111/3113 5SM BR SCT020
     FM311500 23008KT P6SM SCT030
     FM311700 28010KT P6SM SCT045=

USA.gov is the U.S. government's official web portal to all federal, state and local government web resources and services.